createdAt,value
2022-11-05T00:01:07.103Z,3.50
2022-11-05T00:03:58.151Z,2.65
2022-11-05T00:06:49.315Z,3.42
2022-11-05T00:09:32.360Z,3.67
2022-11-05T00:12:28.064Z,2.90
2022-11-05T00:15:18.798Z,2.55
2022-11-05T00:17:52.478Z,2.83
2022-11-05T00:20:25.972Z,3.08
2022-11-05T00:23:20.098Z,3.13
2022-11-05T00:25:58.286Z,3.00
2022-11-05T00:28:37.936Z,2.90
2022-11-05T00:31:13.989Z,2.90
2022-11-05T00:33:47.691Z,2.90
2022-11-05T00:36:21.167Z,2.65
2022-11-05T00:38:54.987Z,2.90
2022-11-05T00:41:28.553Z,2.97
2022-11-05T00:44:32.765Z,2.72
2022-11-05T00:47:20.191Z,2.75
2022-11-05T00:49:53.920Z,2.45
2022-11-05T00:52:45.147Z,3.28
2022-11-05T00:55:18.833Z,4.25
2022-11-05T00:57:52.964Z,3.50
2022-11-05T01:00:29.511Z,3.28
2022-11-05T01:03:05.866Z,2.92
2022-11-05T01:05:41.329Z,2.58
2022-11-05T01:08:16.223Z,2.55
2022-11-05T01:10:52.981Z,3.67
2022-11-05T01:13:28.919Z,3.08
2022-11-05T01:16:09.070Z,2.90
2022-11-05T01:18:42.601Z,2.95
2022-11-05T01:21:16.635Z,2.65
2022-11-05T01:23:50.448Z,2.50
2022-11-05T01:26:24.175Z,3.05
2022-11-05T01:29:00.469Z,3.47
2022-11-05T01:31:35.731Z,2.60
2022-11-05T01:34:09.346Z,3.10
2022-11-05T01:36:43.114Z,2.80
2022-11-05T01:39:16.801Z,3.03
2022-11-05T01:41:50.580Z,3.42
2022-11-05T01:44:57.438Z,3.03
2022-11-05T01:47:42.122Z,2.75
2022-11-05T01:50:44.403Z,2.97
2022-11-05T01:53:25.664Z,3.33
2022-11-05T01:56:03.518Z,3.55
2022-11-05T01:58:43.593Z,3.03
2022-11-05T02:01:18.223Z,3.05
2022-11-05T02:03:56.545Z,3.33
2022-11-05T02:06:31.344Z,3.30
2022-11-05T02:09:09.582Z,2.80
2022-11-05T02:11:43.499Z,2.80
2022-11-05T02:14:18.221Z,3.00
2022-11-05T02:16:58.603Z,2.78
2022-11-05T02:20:11.691Z,2.95
2022-11-05T02:23:15.652Z,3.17
2022-11-05T02:26:18.198Z,3.55
2022-11-05T02:29:24.489Z,3.00
2022-11-05T02:32:04.168Z,4.00
2022-11-05T02:34:49.157Z,4.28
2022-11-05T02:37:35.624Z,3.97
2022-11-05T02:40:19.133Z,2.92
2022-11-05T02:42:59.723Z,3.97
2022-11-05T02:45:43.910Z,3.05
2022-11-05T02:48:24.787Z,2.92
2022-11-05T02:51:03.444Z,3.10
2022-11-05T02:53:46.119Z,3.58
2022-11-05T02:56:23.834Z,2.90
2022-11-05T02:58:57.509Z,3.65
2022-11-05T03:01:31.080Z,3.00
2022-11-05T03:04:09.263Z,3.33
2022-11-05T03:07:08.968Z,3.42
2022-11-05T03:10:07.023Z,3.63
2022-11-05T03:12:56.975Z,3.13
2022-11-05T03:15:43.635Z,3.90
2022-11-05T03:18:22.689Z,3.13
2022-11-05T03:21:04.039Z,3.28
2022-11-05T03:23:43.589Z,3.13
2022-11-05T03:26:21.421Z,3.83
2022-11-05T03:29:00.259Z,3.53
2022-11-05T03:31:38.009Z,3.08
2022-11-05T03:34:15.945Z,3.17
2022-11-05T03:36:54.646Z,3.50
2022-11-05T03:39:32.611Z,3.78
2022-11-05T03:42:09.543Z,3.50
2022-11-05T03:44:52.785Z,3.95
2022-11-05T03:47:32.546Z,3.20
2022-11-05T03:50:11.818Z,3.10
2022-11-05T03:52:52.385Z,3.70
2022-11-05T03:55:31.116Z,4.63
2022-11-05T03:58:06.616Z,3.35
2022-11-05T04:00:40.326Z,3.10
2022-11-05T04:03:14.100Z,3.65
2022-11-05T04:06:10.428Z,3.47
2022-11-05T04:09:03.252Z,3.55
2022-11-05T04:11:54.347Z,3.78
2022-11-05T04:14:28.189Z,3.97
2022-11-05T04:17:09.757Z,3.95
2022-11-05T04:20:02.449Z,4.05
2022-11-05T04:22:54.346Z,3.53
2022-11-05T04:25:29.473Z,3.55
2022-11-05T04:28:02.936Z,4.72
2022-11-05T04:30:35.665Z,3.35
2022-11-05T04:33:11.734Z,3.78
2022-11-05T04:35:47.445Z,4.25
2022-11-05T04:38:21.695Z,3.63
2022-11-05T04:41:13.633Z,3.55
2022-11-05T04:43:47.177Z,3.38
2022-11-05T04:46:20.866Z,4.03
2022-11-05T04:48:54.300Z,3.70
2022-11-05T04:51:28.258Z,4.10
2022-11-05T04:54:01.814Z,4.70
2022-11-05T04:56:36.923Z,4.40
2022-11-05T04:59:10.447Z,4.05
2022-11-05T05:01:44.298Z,4.50
2022-11-05T05:04:17.871Z,4.07
2022-11-05T05:06:51.595Z,3.70
2022-11-05T05:09:25.134Z,3.40
2022-11-05T05:12:00.268Z,3.92
2022-11-05T05:14:33.921Z,5.07
2022-11-05T05:17:07.849Z,3.33
2022-11-05T05:19:59.542Z,3.63
2022-11-05T05:22:33.336Z,3.42
2022-11-05T05:25:07.224Z,3.80
2022-11-05T05:27:42.373Z,3.22
2022-11-05T05:30:16.166Z,3.47
2022-11-05T05:32:49.905Z,3.30
2022-11-05T05:35:23.412Z,3.30
2022-11-05T05:37:57.845Z,3.53
2022-11-05T05:40:31.394Z,4.05
2022-11-05T05:43:06.438Z,4.53
2022-11-05T05:45:40.039Z,4.28
2022-11-05T05:48:13.816Z,4.55
2022-11-05T05:50:47.443Z,3.42
2022-11-05T05:53:22.093Z,5.15
2022-11-05T05:55:56.113Z,3.60
2022-11-05T05:58:35.213Z,3.80
2022-11-05T06:03:50.170Z,4.07
2022-11-05T06:06:23.701Z,3.38
2022-11-05T06:08:57.667Z,3.72
2022-11-05T06:11:31.279Z,4.05
2022-11-05T06:14:06.689Z,3.70
2022-11-05T06:16:41.102Z,3.80
2022-11-05T06:19:14.885Z,3.30
2022-11-05T06:21:48.448Z,3.83
2022-11-05T06:24:22.149Z,3.85
2022-11-05T06:26:55.617Z,3.97
2022-11-05T06:29:30.734Z,4.03
2022-11-05T06:32:04.496Z,3.55
2022-11-05T06:34:38.264Z,3.97
2022-11-05T06:37:12.451Z,3.53
2022-11-05T06:39:46.133Z,3.50
2022-11-05T06:42:19.718Z,4.43
2022-11-05T06:44:54.829Z,4.00
2022-11-05T06:47:28.632Z,3.63
2022-11-05T06:50:02.700Z,3.80
2022-11-05T06:52:40.875Z,3.85
2022-11-05T06:55:15.217Z,4.05
2022-11-05T06:57:48.798Z,4.07
2022-11-05T07:00:24.875Z,3.55
2022-11-05T07:03:04.685Z,3.38
2022-11-05T07:05:41.166Z,3.40
2022-11-05T07:08:15.269Z,3.55
2022-11-05T07:10:49.353Z,3.40
2022-11-05T07:13:22.957Z,3.50
2022-11-05T07:15:58.130Z,3.97
2022-11-05T07:18:31.668Z,3.45
2022-11-05T07:21:05.673Z,3.60
2022-11-05T07:23:39.151Z,3.33
2022-11-05T07:26:13.040Z,3.40
2022-11-05T07:28:46.603Z,3.33
2022-11-05T07:31:21.718Z,3.58
2022-11-05T07:33:55.288Z,3.25
2022-11-05T07:36:29.083Z,3.85
2022-11-05T07:39:02.643Z,3.20
2022-11-05T07:41:37.829Z,3.35
2022-11-05T07:44:11.625Z,3.97
2022-11-05T07:46:46.767Z,3.08
2022-11-05T07:49:20.365Z,3.70
2022-11-05T07:51:54.128Z,3.20
2022-11-05T07:54:27.785Z,3.35
2022-11-05T07:57:01.922Z,3.33
2022-11-05T07:59:35.562Z,3.25
2022-11-05T08:02:11.935Z,3.15
2022-11-05T08:04:45.658Z,3.10
2022-11-05T08:07:19.343Z,2.70
2022-11-05T08:09:52.809Z,2.55
2022-11-05T08:12:26.551Z,3.15
2022-11-05T08:15:00.042Z,2.70
2022-11-05T08:17:35.727Z,2.88
2022-11-05T08:20:10.558Z,3.13
2022-11-05T08:22:45.031Z,2.92
2022-11-05T08:25:18.676Z,2.85
2022-11-05T08:27:57.202Z,3.00
2022-11-05T08:30:32.589Z,2.55
2022-11-05T08:33:10.486Z,2.65
2022-11-05T08:35:44.565Z,2.97
2022-11-05T08:38:20.193Z,2.90
2022-11-05T08:40:58.571Z,2.90
2022-11-05T08:43:32.534Z,2.65
2022-11-05T08:46:06.358Z,2.47
2022-11-05T08:48:41.831Z,2.42
2022-11-05T08:51:15.477Z,2.40
2022-11-05T08:53:49.320Z,2.55
2022-11-05T08:56:23.957Z,2.67
2022-11-05T08:58:57.957Z,2.55
2022-11-05T09:01:33.439Z,2.67
2022-11-05T09:04:09.033Z,2.92
2022-11-05T09:06:42.647Z,2.70
2022-11-05T09:09:16.650Z,2.65
2022-11-05T09:12:11.148Z,2.33
2022-11-05T09:14:43.853Z,2.35
2022-11-05T09:17:19.087Z,2.22
2022-11-05T09:19:54.147Z,2.05
2022-11-05T09:22:27.623Z,2.30
2022-11-05T09:25:01.376Z,2.47
2022-11-05T09:27:34.967Z,2.00
2022-11-05T09:30:10.732Z,2.03
2022-11-05T09:32:44.345Z,2.15
2022-11-05T09:35:19.414Z,2.40
2022-11-05T09:37:58.172Z,2.25
2022-11-05T09:40:39.624Z,2.70
2022-11-05T09:43:19.549Z,1.75
2022-11-05T09:45:58.139Z,2.45
2022-11-05T09:48:33.933Z,2.30
2022-11-05T09:51:12.617Z,2.08
2022-11-05T09:53:47.163Z,1.83
2022-11-05T09:56:24.932Z,2.30
2022-11-05T09:59:02.787Z,2.60
2022-11-05T10:01:38.701Z,1.80
2022-11-05T10:04:17.577Z,1.73
2022-11-05T10:09:31.003Z,2.08
2022-11-05T10:12:08.604Z,1.92
2022-11-05T10:14:45.533Z,1.63
2022-11-05T10:17:24.466Z,2.10
2022-11-05T10:20:03.658Z,2.15
2022-11-05T10:22:39.606Z,2.25
2022-11-05T10:25:19.120Z,1.98
2022-11-05T10:27:56.866Z,2.20
2022-11-05T10:30:30.491Z,1.60
2022-11-05T10:33:07.230Z,2.08
2022-11-05T10:35:49.105Z,1.50
2022-11-05T10:38:24.144Z,1.90
2022-11-05T10:41:10.782Z,1.95
2022-11-05T10:43:48.967Z,2.10
2022-11-05T10:46:32.445Z,2.17
2022-11-05T10:49:23.372Z,1.45
2022-11-05T10:51:59.058Z,1.73
2022-11-05T10:54:36.366Z,1.90
2022-11-05T10:57:28.334Z,2.00
2022-11-05T11:00:21.285Z,1.85
2022-11-05T11:02:58.537Z,2.20
2022-11-05T11:05:35.411Z,2.17
2022-11-05T11:08:23.740Z,2.35
2022-11-05T11:11:00.641Z,1.80
2022-11-05T11:13:51.248Z,2.15
2022-11-05T11:16:26.897Z,2.35
2022-11-05T11:19:03.216Z,1.70
2022-11-05T11:21:38.984Z,2.20
2022-11-05T11:24:23.127Z,2.67
2022-11-05T11:27:02.927Z,3.33
2022-11-05T11:29:41.987Z,1.90
2022-11-05T11:32:21.651Z,1.80
2022-11-05T11:34:57.279Z,2.17
2022-11-05T11:37:35.143Z,3.80
2022-11-05T11:40:17.274Z,1.90
2022-11-05T11:42:55.882Z,1.50
2022-11-05T11:45:33.887Z,2.03
2022-11-05T11:48:15.770Z,1.85
2022-11-05T11:50:50.467Z,1.80
2022-11-05T11:53:30.790Z,2.15
2022-11-05T11:56:15.106Z,1.85
2022-11-05T11:58:52.331Z,2.28
2022-11-05T12:01:52.363Z,2.05
2022-11-05T12:04:47.005Z,1.80
2022-11-05T12:07:35.543Z,2.00
2022-11-05T12:10:27.968Z,1.88
2022-11-05T12:13:29.526Z,2.70
2022-11-05T12:16:13.238Z,2.75
2022-11-05T12:18:54.266Z,1.80
2022-11-05T12:21:52.664Z,1.83
2022-11-05T12:24:46.689Z,2.00
2022-11-05T12:27:33.136Z,2.20
2022-11-05T12:30:12.922Z,2.03
2022-11-05T12:33:08.856Z,2.42
2022-11-05T12:35:56.477Z,2.10
2022-11-05T12:41:21.197Z,2.00
2022-11-05T12:44:09.479Z,1.98
2022-11-05T12:46:52.498Z,1.95
2022-11-05T12:49:50.096Z,2.03
2022-11-05T12:52:52.675Z,2.08
2022-11-05T12:55:28.742Z,2.15
2022-11-05T12:58:09.383Z,1.95
2022-11-05T13:00:48.574Z,2.95
2022-11-05T13:08:45.789Z,2.20
2022-11-05T13:11:23.665Z,2.20
2022-11-05T13:14:05.421Z,1.90
2022-11-05T13:16:43.636Z,2.17
2022-11-05T13:19:22.519Z,1.80
2022-11-05T13:22:07.802Z,2.50
2022-11-05T13:24:48.262Z,2.75
2022-11-05T13:27:44.796Z,2.13
2022-11-05T13:30:21.600Z,2.05
2022-11-05T13:32:59.597Z,2.13
2022-11-05T13:35:38.374Z,2.30
2022-11-05T13:41:26.091Z,2.55
2022-11-05T13:44:31.409Z,1.80
2022-11-05T13:47:33.014Z,3.28
2022-11-05T13:50:41.812Z,2.35
2022-11-05T13:53:57.285Z,2.50
2022-11-05T13:56:41.574Z,2.28
2022-11-05T13:59:50.868Z,2.60
2022-11-05T14:02:28.903Z,2.90
2022-11-05T14:05:03.690Z,2.25
2022-11-05T14:07:44.572Z,3.47
2022-11-05T14:10:29.741Z,2.55
2022-11-05T14:13:17.273Z,2.55
2022-11-05T14:15:58.559Z,2.50
2022-11-05T14:18:42.183Z,2.13
2022-11-05T14:21:48.222Z,2.17
2022-11-05T14:24:40.378Z,2.35
2022-11-05T14:27:49.469Z,4.25
2022-11-05T14:30:45.970Z,2.40
2022-11-05T14:33:33.252Z,2.67
2022-11-05T14:36:36.299Z,2.50
2022-11-05T14:39:22.330Z,2.60
2022-11-05T14:41:59.803Z,2.50
2022-11-05T14:44:35.494Z,2.35
2022-11-05T14:47:24.457Z,2.67
2022-11-05T14:50:02.649Z,2.22
2022-11-05T14:52:38.362Z,2.35
2022-11-05T14:55:28.713Z,2.55
2022-11-05T14:58:31.293Z,2.85
2022-11-05T15:01:07.260Z,3.22
2022-11-05T15:04:17.306Z,2.40
2022-11-05T15:07:29.443Z,2.65
2022-11-05T15:10:10.482Z,2.60
2022-11-05T15:12:48.654Z,2.95
2022-11-05T15:15:24.769Z,3.30
2022-11-05T15:18:05.419Z,3.28
2022-11-05T15:20:44.517Z,3.08
2022-11-05T15:23:21.451Z,3.15
2022-11-05T15:26:06.546Z,2.70
2022-11-05T15:28:43.589Z,2.95
2022-11-05T15:31:26.463Z,2.80
2022-11-05T15:34:23.513Z,3.03
2022-11-05T15:37:01.466Z,3.35
2022-11-05T15:39:40.638Z,3.20
2022-11-05T15:42:16.377Z,3.13
2022-11-05T15:44:51.233Z,3.33
2022-11-05T15:47:26.692Z,3.47
2022-11-05T15:50:02.626Z,3.45
2022-11-05T15:52:42.237Z,3.78
2022-11-05T15:55:20.299Z,4.50
2022-11-05T15:57:59.524Z,3.75
2022-11-05T16:00:36.186Z,3.53
2022-11-05T16:03:25.501Z,4.20
2022-11-05T16:06:00.585Z,3.33
2022-11-05T16:08:37.071Z,3.50
2022-11-05T16:11:20.644Z,3.50
2022-11-05T16:14:13.350Z,4.50
2022-11-05T16:16:48.072Z,4.15
2022-11-05T16:19:40.612Z,5.18
2022-11-05T16:22:14.760Z,5.50
2022-11-05T16:24:51.377Z,5.00
2022-11-05T16:27:24.910Z,3.95
2022-11-05T16:29:58.607Z,4.07
2022-11-05T16:32:32.352Z,3.35
2022-11-05T16:35:08.450Z,3.47
2022-11-05T16:37:46.328Z,3.97
2022-11-05T16:40:26.393Z,4.57
2022-11-05T16:43:16.471Z,4.18
2022-11-05T16:45:50.772Z,4.65
2022-11-05T16:48:24.951Z,5.13
2022-11-05T16:50:58.931Z,4.70
2022-11-05T16:53:32.453Z,5.30
2022-11-05T16:56:14.143Z,4.07
2022-11-05T16:58:49.387Z,3.90
2022-11-05T17:01:24.947Z,4.07
2022-11-05T17:03:58.537Z,3.75
2022-11-05T17:06:32.414Z,4.07
2022-11-05T17:09:06.141Z,4.65
2022-11-05T17:11:41.212Z,4.90
2022-11-05T17:14:15.215Z,4.45
2022-11-05T17:16:49.033Z,5.25
2022-11-05T17:19:22.556Z,5.82
2022-11-05T17:21:56.275Z,4.38
2022-11-05T17:24:29.705Z,5.60
2022-11-05T17:27:04.901Z,5.43
2022-11-05T17:29:38.560Z,5.22
2022-11-05T17:32:13.047Z,5.15
2022-11-05T17:34:46.465Z,5.35
2022-11-05T17:37:20.290Z,6.03
2022-11-05T17:39:53.779Z,4.90
2022-11-05T17:42:29.226Z,4.90
2022-11-05T17:45:03.057Z,5.70
2022-11-05T17:47:36.838Z,5.68
2022-11-05T17:50:12.687Z,6.13
2022-11-05T17:52:46.479Z,5.65
2022-11-05T17:55:20.229Z,5.75
2022-11-05T17:57:55.286Z,5.20
2022-11-05T18:00:29.523Z,6.07
2022-11-05T18:03:03.616Z,6.00
2022-11-05T18:05:37.916Z,6.53
2022-11-05T18:08:12.712Z,5.85
2022-11-05T18:10:46.458Z,6.78
2022-11-05T18:13:21.522Z,5.88
2022-11-05T18:15:55.765Z,6.00
2022-11-05T18:18:29.736Z,6.47
2022-11-05T18:21:03.473Z,5.68
2022-11-05T18:23:37.263Z,5.68
2022-11-05T18:26:11.423Z,6.03
2022-11-05T18:28:46.932Z,6.95
2022-11-05T18:31:21.961Z,6.22
2022-11-05T18:33:58.149Z,5.50
2022-11-05T18:36:33.359Z,5.95
2022-11-05T18:39:08.585Z,5.82
2022-11-05T18:41:42.547Z,6.43
2022-11-05T18:44:22.591Z,7.78
2022-11-05T18:46:58.645Z,7.80
2022-11-05T18:49:32.965Z,5.75
2022-11-05T18:52:06.709Z,7.18
2022-11-05T18:54:40.627Z,6.00
2022-11-05T18:57:14.210Z,6.68
2022-11-05T18:59:49.423Z,7.07
2022-11-05T19:02:23.281Z,6.47
2022-11-05T19:07:51.117Z,5.80
2022-11-05T19:10:25.046Z,6.60
2022-11-05T19:12:58.662Z,5.47
2022-11-05T19:15:33.855Z,5.63
2022-11-05T19:18:07.964Z,6.30
2022-11-05T19:20:42.011Z,5.40
2022-11-05T19:23:15.635Z,5.75
2022-11-05T19:25:49.412Z,5.80
2022-11-05T19:28:23.446Z,5.25
2022-11-05T19:30:58.655Z,5.20
2022-11-05T19:33:32.735Z,5.00
2022-11-05T19:36:07.323Z,7.22
2022-11-05T19:38:41.213Z,5.47
2022-11-05T19:41:18.226Z,5.55
2022-11-05T19:43:54.164Z,5.15
2022-11-05T19:46:30.576Z,6.03
2022-11-05T19:49:04.374Z,5.95
2022-11-05T19:51:38.287Z,5.72
2022-11-05T19:54:11.996Z,5.97
2022-11-05T19:56:45.785Z,5.53
2022-11-05T19:59:19.477Z,5.22
2022-11-05T20:01:54.752Z,5.97
2022-11-05T20:04:28.441Z,5.25
2022-11-05T20:07:02.279Z,6.22
2022-11-05T20:09:35.909Z,5.75
2022-11-05T20:12:09.703Z,5.85
2022-11-05T20:14:43.231Z,6.20
2022-11-05T20:17:20.295Z,5.70
2022-11-05T20:19:53.939Z,6.13
2022-11-05T20:22:27.812Z,5.53
2022-11-05T20:25:01.489Z,6.03
2022-11-05T20:27:35.416Z,5.55
2022-11-05T20:30:10.718Z,5.75
2022-11-05T20:32:45.973Z,5.80
2022-11-05T20:35:20.737Z,5.95
2022-11-05T20:37:54.572Z,6.28
2022-11-05T20:40:28.228Z,6.70
2022-11-05T20:43:02.105Z,6.28
2022-11-05T20:45:35.818Z,5.90
2022-11-05T20:48:11.292Z,7.20
2022-11-05T20:50:45.866Z,7.65
2022-11-05T20:53:19.696Z,7.88
2022-11-05T20:55:53.167Z,7.03
2022-11-05T20:58:26.958Z,7.97
2022-11-05T21:01:00.583Z,7.13
2022-11-05T21:03:35.753Z,7.70
2022-11-05T21:06:09.447Z,7.63
2022-11-05T21:08:43.884Z,7.43
2022-11-05T21:11:18.486Z,7.18
2022-11-05T21:13:52.323Z,7.53
2022-11-05T21:16:25.889Z,7.30
2022-11-05T21:19:00.969Z,7.32
2022-11-05T21:21:37.479Z,7.65
2022-11-05T21:24:14.590Z,7.20
2022-11-05T21:26:49.869Z,8.02
2022-11-05T21:29:23.715Z,6.97
2022-11-05T21:31:57.256Z,7.55
2022-11-05T21:34:32.423Z,6.88
2022-11-05T21:37:06.878Z,7.43
2022-11-05T21:39:40.526Z,7.00
2022-11-05T21:42:14.248Z,6.57
2022-11-05T21:44:48.022Z,6.65
2022-11-05T21:47:21.548Z,6.85
2022-11-05T21:49:56.658Z,6.70
2022-11-05T21:52:47.801Z,7.13
2022-11-05T21:55:35.471Z,8.18
2022-11-05T21:58:31.860Z,6.65
2022-11-05T22:01:05.975Z,7.65
2022-11-05T22:03:39.609Z,6.63
2022-11-05T22:06:14.715Z,7.30
2022-11-05T22:08:48.219Z,7.75
2022-11-05T22:11:21.976Z,7.47
2022-11-05T22:13:55.534Z,7.28
2022-11-05T22:16:29.345Z,6.95
2022-11-05T22:19:02.995Z,7.53
2022-11-05T22:21:38.102Z,6.65
2022-11-05T22:24:11.613Z,6.72
2022-11-05T22:26:46.447Z,7.00
2022-11-05T22:29:19.984Z,6.47
2022-11-05T22:31:53.726Z,6.53
2022-11-05T22:34:27.362Z,6.28
2022-11-05T22:37:03.393Z,6.43
2022-11-05T22:39:37.159Z,6.50
2022-11-05T22:42:11.066Z,6.20
2022-11-05T22:44:44.548Z,5.90
2022-11-05T22:47:18.346Z,5.30
2022-11-05T22:49:52.142Z,5.43
2022-11-05T22:52:27.508Z,5.47
2022-11-05T22:55:02.624Z,5.30
2022-11-05T22:57:36.413Z,6.05
2022-11-05T23:00:17.099Z,5.00
2022-11-05T23:02:52.917Z,6.03
2022-11-05T23:05:26.519Z,5.93
2022-11-05T23:08:19.306Z,5.82
2022-11-05T23:11:22.690Z,5.72
2022-11-05T23:13:56.749Z,5.13
2022-11-05T23:16:50.750Z,4.97
2022-11-05T23:19:42.618Z,4.70
2022-11-05T23:22:35.386Z,5.10
2022-11-05T23:25:12.922Z,4.80
2022-11-05T23:27:48.078Z,4.60
2022-11-05T23:30:23.663Z,4.82
2022-11-05T23:32:56.278Z,5.38
2022-11-05T23:35:53.062Z,5.20
2022-11-05T23:38:35.728Z,4.45
2022-11-05T23:41:28.524Z,4.80
2022-11-05T23:44:19.818Z,4.88
2022-11-05T23:47:16.418Z,4.43
2022-11-05T23:49:50.077Z,5.47
2022-11-05T23:52:23.815Z,4.57
2022-11-05T23:54:57.367Z,4.57
2022-11-05T23:57:32.531Z,4.68
